createdAt,value
2023-02-15T00:01:09.696Z,5.31
2023-02-15T00:03:36.372Z,5.27
2023-02-15T00:06:03.679Z,5.02
2023-02-15T00:08:33.283Z,4.92
2023-02-15T00:11:06.705Z,4.79
2023-02-15T00:13:35.789Z,4.83
2023-02-15T00:16:07.289Z,4.89
2023-02-15T00:18:34.222Z,4.83
2023-02-15T00:21:07.950Z,4.69
2023-02-15T00:23:34.859Z,4.87
2023-02-15T00:26:10.425Z,5.07
2023-02-15T00:28:37.233Z,5.05
2023-02-15T00:31:13.681Z,5.10
2023-02-15T00:33:41.268Z,5.18
2023-02-15T00:36:09.024Z,5.21
2023-02-15T00:38:38.301Z,5.04
2023-02-15T00:41:06.619Z,5.03
2023-02-15T00:43:34.280Z,5.03
2023-02-15T00:46:01.384Z,4.81
2023-02-15T00:48:31.572Z,4.62
2023-02-15T00:50:59.680Z,4.44
2023-02-15T00:53:27.150Z,4.54
2023-02-15T00:55:54.062Z,4.24
2023-02-15T00:58:20.739Z,4.22
2023-02-15T01:00:48.269Z,4.33
2023-02-15T01:03:16.563Z,4.62
2023-02-15T01:05:43.454Z,4.74
2023-02-15T01:08:09.952Z,4.78
2023-02-15T01:10:37.400Z,4.93
2023-02-15T01:13:04.092Z,5.10
2023-02-15T01:15:30.599Z,5.17
2023-02-15T01:17:57.129Z,5.11
2023-02-15T01:20:28.405Z,5.03
2023-02-15T01:22:55.781Z,4.92
2023-02-15T01:25:24.066Z,5.03
2023-02-15T01:27:50.743Z,4.97
2023-02-15T01:30:17.874Z,4.84
2023-02-15T01:32:44.560Z,4.80
2023-02-15T01:35:11.580Z,4.73
2023-02-15T01:37:38.267Z,4.86
2023-02-15T01:40:07.546Z,4.91
2023-02-15T01:42:34.174Z,4.97
2023-02-15T01:45:23.315Z,5.13
2023-02-15T01:47:57.355Z,5.06
2023-02-15T01:50:33.377Z,5.15
2023-02-15T01:53:04.423Z,4.93
2023-02-15T01:55:35.502Z,4.68
2023-02-15T01:58:02.253Z,4.64
2023-02-15T02:00:29.669Z,4.75
2023-02-15T02:02:57.132Z,4.42
2023-02-15T02:05:23.690Z,4.35
2023-02-15T02:07:56.027Z,4.08
2023-02-15T02:10:24.043Z,4.07
2023-02-15T02:12:54.175Z,4.21
2023-02-15T02:15:24.838Z,4.31
2023-02-15T02:18:13.261Z,4.19
2023-02-15T02:20:48.728Z,4.04
2023-02-15T02:23:50.393Z,3.94
2023-02-15T02:26:39.838Z,3.91
2023-02-15T02:29:33.774Z,3.88
2023-02-15T02:32:24.945Z,3.90
2023-02-15T02:35:20.424Z,3.86
2023-02-15T02:38:00.872Z,3.74
2023-02-15T02:40:53.967Z,3.76
2023-02-15T02:43:34.320Z,3.90
2023-02-15T02:46:12.434Z,4.08
2023-02-15T02:48:39.523Z,4.13
2023-02-15T02:51:06.059Z,4.06
2023-02-15T02:53:33.729Z,3.97
2023-02-15T02:56:06.201Z,3.87
2023-02-15T02:58:45.140Z,3.87
2023-02-15T03:01:19.642Z,3.98
2023-02-15T03:03:52.676Z,4.04
2023-02-15T03:06:26.898Z,4.12
2023-02-15T03:08:59.647Z,4.22
2023-02-15T03:11:26.445Z,4.43
2023-02-15T03:13:53.082Z,4.42
2023-02-15T03:16:20.852Z,4.35
2023-02-15T03:18:49.884Z,4.01
2023-02-15T03:21:16.446Z,3.89
2023-02-15T03:23:42.934Z,3.92
2023-02-15T03:26:09.500Z,3.95
2023-02-15T03:28:44.434Z,4.14
2023-02-15T03:31:13.437Z,4.07
2023-02-15T03:33:45.341Z,4.07
2023-02-15T03:36:30.415Z,4.19
2023-02-15T03:39:11.578Z,3.79
2023-02-15T03:42:06.719Z,3.64
2023-02-15T03:44:38.553Z,3.68
2023-02-15T03:47:15.194Z,3.69
2023-02-15T03:50:03.078Z,3.54
2023-02-15T03:52:31.290Z,3.61
2023-02-15T03:54:58.130Z,3.65
2023-02-15T03:57:27.440Z,3.80
2023-02-15T03:59:57.107Z,3.98
2023-02-15T04:02:25.849Z,4.20
2023-02-15T04:04:52.340Z,3.98
2023-02-15T04:07:18.839Z,4.01
2023-02-15T04:09:45.646Z,4.04
2023-02-15T04:12:12.683Z,4.06
2023-02-15T04:14:56.103Z,4.09
2023-02-15T04:17:22.637Z,4.13
2023-02-15T04:19:49.130Z,4.16
2023-02-15T04:22:15.603Z,4.09
2023-02-15T04:24:42.067Z,3.96
2023-02-15T04:27:08.690Z,3.74
2023-02-15T04:29:35.202Z,3.39
2023-02-15T04:32:02.330Z,3.36
2023-02-15T04:34:29.465Z,3.44
2023-02-15T04:36:56.076Z,3.36
2023-02-15T04:39:22.575Z,3.37
2023-02-15T04:41:49.624Z,3.39
2023-02-15T04:44:16.394Z,3.62
2023-02-15T04:46:42.928Z,3.87
2023-02-15T04:49:09.907Z,4.03
2023-02-15T04:51:36.506Z,3.85
2023-02-15T04:54:03.053Z,3.70
2023-02-15T04:56:29.600Z,3.90
2023-02-15T04:58:56.306Z,3.97
2023-02-15T05:01:22.860Z,3.82
2023-02-15T05:03:49.351Z,3.81
2023-02-15T05:06:15.843Z,3.87
2023-02-15T05:08:42.346Z,3.89
2023-02-15T05:11:08.828Z,3.78
2023-02-15T05:13:35.706Z,3.83
2023-02-15T05:16:02.475Z,3.94
2023-02-15T05:18:29.240Z,4.08
2023-02-15T05:20:55.990Z,4.16
2023-02-15T05:23:22.560Z,4.16
2023-02-15T05:25:50.123Z,4.26
2023-02-15T05:28:16.668Z,4.24
2023-02-15T05:30:43.320Z,4.28
2023-02-15T05:33:10.020Z,4.31
2023-02-15T05:35:36.522Z,4.44
2023-02-15T05:38:03.041Z,4.35
2023-02-15T05:40:29.757Z,4.31
2023-02-15T05:42:57.506Z,3.91
2023-02-15T05:45:24.418Z,3.85
2023-02-15T05:47:51.012Z,3.54
2023-02-15T05:50:17.685Z,3.48
2023-02-15T05:52:44.222Z,3.56
2023-02-15T05:55:10.785Z,3.56
2023-02-15T05:57:37.260Z,3.58
2023-02-15T06:00:05.276Z,3.62
2023-02-15T06:02:38.716Z,3.37
2023-02-15T06:05:06.484Z,3.31
2023-02-15T06:07:33.095Z,3.22
2023-02-15T06:09:59.702Z,3.21
2023-02-15T06:12:26.252Z,3.23
2023-02-15T06:14:52.752Z,3.21
2023-02-15T06:17:19.355Z,3.06
2023-02-15T06:19:45.878Z,3.12
2023-02-15T06:22:12.555Z,3.15
2023-02-15T06:24:39.056Z,3.36
2023-02-15T06:27:05.537Z,3.54
2023-02-15T06:29:32.148Z,3.46
2023-02-15T06:31:58.730Z,3.55
2023-02-15T06:34:25.263Z,3.64
2023-02-15T06:36:54.605Z,3.72
2023-02-15T06:39:21.466Z,3.80
2023-02-15T06:41:48.393Z,3.83
2023-02-15T06:44:15.206Z,3.79
2023-02-15T06:46:41.781Z,3.52
2023-02-15T06:49:08.312Z,3.66
2023-02-15T06:51:35.049Z,3.70
2023-02-15T06:54:01.648Z,3.78
2023-02-15T06:56:28.436Z,3.73
2023-02-15T06:58:54.914Z,3.53
2023-02-15T07:01:21.420Z,3.66
2023-02-15T07:03:47.900Z,3.77
2023-02-15T07:06:15.105Z,3.82
2023-02-15T07:08:44.777Z,3.93
2023-02-15T07:11:11.607Z,3.90
2023-02-15T07:13:38.184Z,3.84
2023-02-15T07:16:05.046Z,3.85
2023-02-15T07:18:31.720Z,3.69
2023-02-15T07:20:58.231Z,3.77
2023-02-15T07:23:24.745Z,3.80
2023-02-15T07:25:58.050Z,3.87
2023-02-15T07:28:24.526Z,3.78
2023-02-15T07:30:51.657Z,4.03
2023-02-15T07:33:18.248Z,4.23
2023-02-15T07:35:49.186Z,4.38
2023-02-15T07:38:16.018Z,4.58
2023-02-15T07:40:43.449Z,4.42
2023-02-15T07:43:10.100Z,4.11
2023-02-15T07:45:36.698Z,4.06
2023-02-15T07:48:04.142Z,4.33
2023-02-15T07:50:30.637Z,4.50
2023-02-15T07:52:57.454Z,4.69
2023-02-15T07:55:24.026Z,4.97
2023-02-15T07:57:51.444Z,5.13
2023-02-15T08:00:20.179Z,5.40
2023-02-15T08:02:50.503Z,5.59
2023-02-15T08:05:16.980Z,5.87
2023-02-15T08:07:43.574Z,6.02
2023-02-15T08:10:10.285Z,6.17
2023-02-15T08:12:36.784Z,6.26
2023-02-15T08:15:03.339Z,6.27
2023-02-15T08:17:30.082Z,6.36
2023-02-15T08:19:56.556Z,6.49
2023-02-15T08:22:25.518Z,6.61
2023-02-15T08:24:52.599Z,6.80
2023-02-15T08:27:19.221Z,6.91
2023-02-15T08:29:45.742Z,7.10
2023-02-15T08:32:13.363Z,7.18
2023-02-15T08:34:44.234Z,7.26
2023-02-15T08:37:10.778Z,7.17
2023-02-15T08:39:37.413Z,7.16
2023-02-15T08:42:03.993Z,7.19
2023-02-15T08:44:30.720Z,7.19
2023-02-15T08:46:57.350Z,7.13
2023-02-15T08:49:24.707Z,7.20
2023-02-15T08:51:51.392Z,7.25
2023-02-15T08:54:20.113Z,7.24
2023-02-15T08:56:47.209Z,7.18
2023-02-15T08:59:17.225Z,7.32
2023-02-15T09:01:43.867Z,7.29
2023-02-15T09:04:10.794Z,7.14
2023-02-15T09:06:41.866Z,7.19
2023-02-15T09:09:08.986Z,7.28
2023-02-15T09:11:41.488Z,7.29
2023-02-15T09:14:12.535Z,7.27
2023-02-15T09:16:39.450Z,7.19
2023-02-15T09:19:06.938Z,7.15
2023-02-15T09:21:37.792Z,7.21
2023-02-15T09:24:10.044Z,7.02
2023-02-15T09:26:39.360Z,6.91
2023-02-15T09:29:05.865Z,6.87
2023-02-15T09:31:34.706Z,6.98
2023-02-15T09:34:01.549Z,7.00
2023-02-15T09:36:33.878Z,7.28
2023-02-15T09:39:09.476Z,7.32
2023-02-15T09:41:41.904Z,7.41
2023-02-15T09:44:28.944Z,7.51
2023-02-15T09:47:26.442Z,7.27
2023-02-15T09:50:14.850Z,7.54
2023-02-15T09:53:03.651Z,7.61
2023-02-15T09:55:48.297Z,7.83
2023-02-15T09:58:23.589Z,7.80
2023-02-15T10:01:06.085Z,7.73
2023-02-15T10:03:48.874Z,7.80
2023-02-15T10:06:23.282Z,7.91
2023-02-15T10:09:03.419Z,7.95
2023-02-15T10:12:02.509Z,7.91
2023-02-15T10:14:45.318Z,7.88
2023-02-15T10:17:16.033Z,7.94
2023-02-15T10:20:01.594Z,7.97
2023-02-15T10:22:51.370Z,8.16
2023-02-15T10:25:24.940Z,8.20
2023-02-15T10:27:51.642Z,8.07
2023-02-15T10:30:32.942Z,8.16
2023-02-15T10:33:14.774Z,8.21
2023-02-15T10:36:07.781Z,8.47
2023-02-15T10:38:49.726Z,8.48
2023-02-15T10:41:28.886Z,8.51
2023-02-15T10:44:05.407Z,8.51
2023-02-15T10:46:50.921Z,8.46
2023-02-15T10:49:22.745Z,8.31
2023-02-15T10:52:00.112Z,8.34
2023-02-15T10:54:41.952Z,8.25
2023-02-15T10:57:25.780Z,8.16
2023-02-15T11:00:17.169Z,8.54
2023-02-15T11:02:43.906Z,8.40
2023-02-15T11:05:27.385Z,8.50
2023-02-15T11:07:55.622Z,8.66
2023-02-15T11:10:42.606Z,8.76
2023-02-15T11:13:12.385Z,8.72
2023-02-15T11:15:44.942Z,8.68
2023-02-15T11:18:17.082Z,8.87
2023-02-15T11:20:52.823Z,8.96
2023-02-15T11:23:19.364Z,9.11
2023-02-15T11:25:53.426Z,9.21
2023-02-15T11:28:26.622Z,9.27
2023-02-15T11:30:56.977Z,9.31
2023-02-15T11:33:25.366Z,9.40
2023-02-15T11:35:57.016Z,9.36
2023-02-15T11:38:25.887Z,9.37
2023-02-15T11:40:58.434Z,9.29
2023-02-15T11:43:43.931Z,9.25
2023-02-15T11:46:12.989Z,9.46
2023-02-15T11:48:40.771Z,9.45
2023-02-15T11:51:13.523Z,9.56
2023-02-15T11:53:41.525Z,9.76
2023-02-15T11:56:15.377Z,9.77
2023-02-15T11:58:56.275Z,9.97
2023-02-15T12:01:25.842Z,10.01
2023-02-15T12:03:58.776Z,9.76
2023-02-15T12:06:28.610Z,9.81
2023-02-15T12:09:18.474Z,9.78
2023-02-15T12:11:45.130Z,9.99
2023-02-15T12:14:13.272Z,10.11
2023-02-15T12:16:54.977Z,10.06
2023-02-15T12:19:41.169Z,10.12
2023-02-15T12:22:28.997Z,10.27
2023-02-15T12:24:57.906Z,10.00
2023-02-15T12:27:31.885Z,9.57
2023-02-15T12:30:21.079Z,9.86
2023-02-15T12:32:53.521Z,9.98
2023-02-15T12:35:29.087Z,10.10
2023-02-15T12:38:01.786Z,10.18
2023-02-15T12:40:33.245Z,10.17
2023-02-15T12:43:00.115Z,10.01
2023-02-15T12:45:31.812Z,10.00
2023-02-15T12:48:13.363Z,10.11
2023-02-15T12:50:40.734Z,10.11
2023-02-15T12:53:31.298Z,10.32
2023-02-15T12:56:03.414Z,10.21
2023-02-15T12:58:34.463Z,10.17
2023-02-15T13:01:09.970Z,10.26
2023-02-15T13:03:39.418Z,10.29
2023-02-15T13:06:08.544Z,10.46
2023-02-15T13:08:45.781Z,10.57
2023-02-15T13:11:13.096Z,10.67
2023-02-15T13:13:51.745Z,10.68
2023-02-15T13:16:22.573Z,10.79
2023-02-15T13:18:51.674Z,10.77
2023-02-15T13:21:33.268Z,10.88
2023-02-15T13:24:04.126Z,11.00
2023-02-15T13:26:32.459Z,11.18
2023-02-15T13:29:26.454Z,11.00
2023-02-15T13:31:54.888Z,11.05
2023-02-15T13:34:25.404Z,11.32
2023-02-15T13:36:57.995Z,11.36
2023-02-15T13:39:44.103Z,11.41
2023-02-15T13:42:13.657Z,11.57
2023-02-15T13:45:28.181Z,11.73
2023-02-15T13:48:00.532Z,11.59
2023-02-15T13:50:51.726Z,11.57
2023-02-15T13:53:48.066Z,11.75
2023-02-15T13:56:22.668Z,11.89
2023-02-15T13:59:21.364Z,11.63
2023-02-15T14:01:54.246Z,11.62
2023-02-15T14:04:23.878Z,11.65
2023-02-15T14:07:09.327Z,11.77
2023-02-15T14:09:54.840Z,12.05
2023-02-15T14:12:47.736Z,12.09
2023-02-15T14:15:14.135Z,12.36
2023-02-15T14:17:53.714Z,12.48
2023-02-15T14:20:48.477Z,12.28
2023-02-15T14:23:43.358Z,12.22
2023-02-15T14:26:43.611Z,12.17
2023-02-15T14:29:19.075Z,12.39
2023-02-15T14:31:49.965Z,12.48
2023-02-15T14:34:22.364Z,12.42
2023-02-15T14:36:51.050Z,12.43
2023-02-15T14:39:17.584Z,12.54
2023-02-15T14:41:45.611Z,12.45
2023-02-15T14:44:47.634Z,12.42
2023-02-15T14:47:23.020Z,12.26
2023-02-15T14:49:49.497Z,12.20
2023-02-15T14:52:15.979Z,12.13
2023-02-15T14:54:42.400Z,12.18
2023-02-15T14:57:08.813Z,12.22
2023-02-15T14:59:40.939Z,11.98
2023-02-15T15:02:07.374Z,11.97
2023-02-15T15:04:41.378Z,11.93
2023-02-15T15:07:34.209Z,12.08
2023-02-15T15:10:15.921Z,11.93
2023-02-15T15:12:47.154Z,11.46
2023-02-15T15:15:29.021Z,11.52
2023-02-15T15:17:57.400Z,11.73
2023-02-15T15:20:26.988Z,11.92
2023-02-15T15:23:15.447Z,11.85
2023-02-15T15:26:15.655Z,11.83
2023-02-15T15:28:42.037Z,11.66
2023-02-15T15:31:17.620Z,11.68
2023-02-15T15:34:05.761Z,11.82
2023-02-15T15:36:47.352Z,11.89
2023-02-15T15:39:27.628Z,11.83
2023-02-15T15:41:53.962Z,11.65
2023-02-15T15:44:58.020Z,11.74
2023-02-15T15:47:38.059Z,11.77
2023-02-15T15:50:13.989Z,11.77
2023-02-15T15:52:43.675Z,11.65
2023-02-15T15:55:17.162Z,11.66
2023-02-15T15:57:45.630Z,11.61
2023-02-15T16:00:43.354Z,11.59
2023-02-15T16:03:26.388Z,11.55
2023-02-15T16:05:53.338Z,11.49
2023-02-15T16:08:46.111Z,11.44
2023-02-15T16:11:20.363Z,11.43
2023-02-15T16:13:49.583Z,11.35
2023-02-15T16:16:22.513Z,11.53
2023-02-15T16:18:49.403Z,11.47
2023-02-15T16:21:27.425Z,11.45
2023-02-15T16:24:00.850Z,11.44
2023-02-15T16:26:50.442Z,11.33
2023-02-15T16:29:19.397Z,11.17
2023-02-15T16:32:07.065Z,11.14
2023-02-15T16:34:33.848Z,10.71
2023-02-15T16:37:21.243Z,10.40
2023-02-15T16:39:47.898Z,10.23
2023-02-15T16:42:14.934Z,10.00
2023-02-15T16:44:41.522Z,9.97
2023-02-15T16:47:17.946Z,10.27
2023-02-15T16:49:48.042Z,10.43
2023-02-15T16:52:20.342Z,10.41
2023-02-15T16:54:47.011Z,10.18
2023-02-15T16:57:22.155Z,10.00
2023-02-15T16:59:56.555Z,9.95
2023-02-15T17:02:53.163Z,9.97
2023-02-15T17:05:18.754Z,9.92
2023-02-15T17:08:03.518Z,9.71
2023-02-15T17:10:31.786Z,9.41
2023-02-15T17:13:03.006Z,9.41
2023-02-15T17:15:34.258Z,9.28
2023-02-15T17:18:10.154Z,9.20
2023-02-15T17:20:39.108Z,9.06
2023-02-15T17:23:06.685Z,8.99
2023-02-15T17:25:38.897Z,8.93
2023-02-15T17:28:06.493Z,8.95
2023-02-15T17:30:35.010Z,8.88
2023-02-15T17:33:03.589Z,8.92
2023-02-15T17:35:33.668Z,9.01
2023-02-15T17:38:21.276Z,9.15
2023-02-15T17:40:48.159Z,9.28
2023-02-15T17:43:14.648Z,8.98
2023-02-15T17:45:59.869Z,8.97
2023-02-15T17:48:39.181Z,8.97
2023-02-15T17:51:08.219Z,8.82
2023-02-15T17:53:35.052Z,8.78
2023-02-15T17:56:01.678Z,8.91
2023-02-15T17:58:28.218Z,8.80
2023-02-15T18:01:01.099Z,8.61
2023-02-15T18:03:39.306Z,8.56
2023-02-15T18:06:06.337Z,8.64
2023-02-15T18:08:32.824Z,8.74
2023-02-15T18:11:00.303Z,8.62
2023-02-15T18:13:26.901Z,8.59
2023-02-15T18:15:53.451Z,8.47
2023-02-15T18:18:20.745Z,8.41
2023-02-15T18:20:47.307Z,8.44
2023-02-15T18:23:19.662Z,8.44
2023-02-15T18:25:46.374Z,8.54
2023-02-15T18:28:12.939Z,8.54
2023-02-15T18:30:40.513Z,8.44
2023-02-15T18:33:22.373Z,8.59
2023-02-15T18:35:51.786Z,8.50
2023-02-15T18:38:18.452Z,8.57
2023-02-15T18:40:44.911Z,8.70
2023-02-15T18:43:13.140Z,8.58
2023-02-15T18:45:39.774Z,8.44
2023-02-15T18:48:06.374Z,8.57
2023-02-15T18:50:35.781Z,8.57
2023-02-15T18:53:03.922Z,8.59
2023-02-15T18:55:30.582Z,8.46
2023-02-15T18:57:57.444Z,8.54
2023-02-15T19:00:26.542Z,8.41
2023-02-15T19:02:53.038Z,8.38
2023-02-15T19:05:19.554Z,8.58
2023-02-15T19:07:46.801Z,8.60
2023-02-15T19:10:16.507Z,8.65
2023-02-15T19:12:43.590Z,8.66
2023-02-15T19:15:30.684Z,8.58
2023-02-15T19:17:57.311Z,8.57
2023-02-15T19:20:36.097Z,8.43
2023-02-15T19:23:03.267Z,8.46
2023-02-15T19:25:32.154Z,8.29
2023-02-15T19:27:59.030Z,8.21
2023-02-15T19:30:29.470Z,7.96
2023-02-15T19:32:57.632Z,7.98
2023-02-15T19:35:27.136Z,7.87
2023-02-15T19:37:55.717Z,8.03
2023-02-15T19:40:28.198Z,8.14
2023-02-15T19:42:54.784Z,7.90
2023-02-15T19:45:26.946Z,7.85
2023-02-15T19:47:56.384Z,7.73
2023-02-15T19:50:28.335Z,7.79
2023-02-15T19:52:55.141Z,7.59
2023-02-15T19:55:32.084Z,7.60
2023-02-15T19:57:59.555Z,7.38
2023-02-15T20:00:41.392Z,7.62
2023-02-15T20:03:07.939Z,7.69
2023-02-15T20:05:35.180Z,7.74
2023-02-15T20:08:01.898Z,7.96
2023-02-15T20:10:30.590Z,7.92
2023-02-15T20:12:57.742Z,7.86
2023-02-15T20:15:32.598Z,7.84
2023-02-15T20:18:00.723Z,7.72
2023-02-15T20:20:31.950Z,7.85
2023-02-15T20:22:58.512Z,7.81
2023-02-15T20:25:27.142Z,7.78
2023-02-15T20:27:53.774Z,7.86
2023-02-15T20:30:24.808Z,7.89
2023-02-15T20:32:51.363Z,7.77
2023-02-15T20:35:23.022Z,7.67
2023-02-15T20:37:54.566Z,7.58
2023-02-15T20:40:26.734Z,7.65
2023-02-15T20:42:53.618Z,7.65
2023-02-15T20:45:25.156Z,7.81
2023-02-15T20:47:52.722Z,7.70
2023-02-15T20:50:28.588Z,7.66
2023-02-15T20:52:59.854Z,7.60
2023-02-15T20:55:29.150Z,7.62
2023-02-15T20:57:56.220Z,7.40
2023-02-15T21:00:26.134Z,7.37
2023-02-15T21:02:57.965Z,7.40
2023-02-15T21:05:29.901Z,7.49
2023-02-15T21:07:57.730Z,7.34
2023-02-15T21:10:27.207Z,7.40
2023-02-15T21:12:53.934Z,7.48
2023-02-15T21:15:38.625Z,7.43
2023-02-15T21:18:32.677Z,7.40
2023-02-15T21:21:02.454Z,7.53
2023-02-15T21:23:34.133Z,7.57
2023-02-15T21:26:00.872Z,7.39
2023-02-15T21:28:29.032Z,7.38
2023-02-15T21:30:56.841Z,7.31
2023-02-15T21:33:24.364Z,7.09
2023-02-15T21:35:55.011Z,7.12
2023-02-15T21:38:23.344Z,7.06
2023-02-15T21:40:50.067Z,7.10
2023-02-15T21:43:24.207Z,7.06
2023-02-15T21:45:50.708Z,7.07
2023-02-15T21:48:17.415Z,7.16
2023-02-15T21:50:44.125Z,7.22
2023-02-15T21:53:13.603Z,7.21
2023-02-15T21:55:40.263Z,7.31
2023-02-15T21:58:06.738Z,7.39
2023-02-15T22:00:33.296Z,7.16
2023-02-15T22:03:00.187Z,6.98
2023-02-15T22:05:32.571Z,7.12
2023-02-15T22:08:00.080Z,6.97
2023-02-15T22:10:29.828Z,6.83
2023-02-15T22:12:56.407Z,6.79
2023-02-15T22:15:24.957Z,6.68
2023-02-15T22:17:51.950Z,6.66
2023-02-15T22:20:20.869Z,6.71
2023-02-15T22:22:47.908Z,6.73
2023-02-15T22:25:15.772Z,6.71
2023-02-15T22:27:42.881Z,6.64
2023-02-15T22:30:19.115Z,6.54
2023-02-15T22:32:45.731Z,6.44
2023-02-15T22:35:17.669Z,6.46
2023-02-15T22:37:44.187Z,6.29
2023-02-15T22:40:14.771Z,6.22
2023-02-15T22:42:42.707Z,6.27
2023-02-15T22:45:18.091Z,6.13
2023-02-15T22:47:45.359Z,6.30
2023-02-15T22:50:19.499Z,6.20
2023-02-15T22:52:46.161Z,6.26
2023-02-15T22:55:17.318Z,6.25
2023-02-15T22:57:45.364Z,6.15
2023-02-15T23:00:17.577Z,6.17
2023-02-15T23:02:44.674Z,6.21
2023-02-15T23:05:19.396Z,6.40
2023-02-15T23:07:46.819Z,6.48
2023-02-15T23:10:13.921Z,6.32
2023-02-15T23:12:40.416Z,6.19
2023-02-15T23:15:11.274Z,5.81
2023-02-15T23:17:37.764Z,5.76
2023-02-15T23:20:04.607Z,5.62
2023-02-15T23:22:31.111Z,5.60
2023-02-15T23:24:57.664Z,5.65
2023-02-15T23:27:24.307Z,5.74
2023-02-15T23:29:51.094Z,5.76
2023-02-15T23:32:18.168Z,5.81
2023-02-15T23:34:44.745Z,5.89
2023-02-15T23:37:12.193Z,6.03
2023-02-15T23:39:38.904Z,6.23
2023-02-15T23:42:09.031Z,6.36
2023-02-15T23:44:35.874Z,6.22
2023-02-15T23:47:02.481Z,6.27
2023-02-15T23:49:28.971Z,6.30
2023-02-15T23:51:57.272Z,6.33
2023-02-15T23:54:25.510Z,6.07
2023-02-15T23:57:00.747Z,6.16
2023-02-15T23:59:31.089Z,6.25
